Terminal Aerodrome Forecast
Issued by NWS Denver/Boulder, CO

Home | Current Version | Previous Version | Text Only | Print | Product List | Glossary On
Versions: 1 2 3 4 5 6 7 8 9 10 11 12 13 14 15 16 17 18 19 20 21 22 23 24 25 26 27 28 29 30 31 32 33 34 35 36 37 38 39 40 41
000
FTUS45 KBOU 240900 AAA
TAFDEN
TAF AMD
KDEN 240900Z 2409/2512 19010KT P6SM FEW120 BKN220
     FM241700 16009KT P6SM SCT220
     FM242100 11010KT P6SM FEW200
     FM250300 20010KT P6SM FEW200=

USA.gov is the U.S. government's official web portal to all federal, state and local government web resources and services.